Somerset, Wisconsin
Current Conditions -  °F | °C
As of 11:55 PM on Wednesday 17 Dec 2014 (Local Time) from KRNH Reporting Station
Overcast Overcast  
Wind Chill:   Ceiling: 1900
Heat Index: 17°   Visibility: 10mi
Dew Point: 14°   Wind: 6mph
Humidity: 89%   Direction: 30°NNE
Pressure: 30.31"   Gusts: NA
Location:  45.12°N, 92.67°W
Report Text: KRNH 180555Z AUTO 03005KT 10SM OVC019 M08/M10 A3031 RMK AO2 T10851100 11085 21115 410771120
Loading
Personal Weather Stations






























Interactive Weather Map New forecast layout! Learn more

10-Day Weather Forecast

Advertisements
Track Severe Weather on mobile